Time;durP1;ratioP1;P1;durP2;ratioP2;P2;SDS_P1;SDS_P2;PMS_P1;PMS_P2;Temp;Humidity;BMP_temperature;BMP_pressure;BME280_temperature;BME280_humidity;BME280_pressure;Samples;Min_cycle;Max_cycle;Signal;HPM_P1;HPM_P2
2022/06/04 00:01:55;;;;;;;6.05;3.40;;;21.90;99.90;;;;;;5022426;28;20048;-75
2022/06/04 00:04:24;;;;;;;5.55;3.47;;;21.90;99.90;;;;;;5024395;28;20045;-75
2022/06/04 00:06:51;;;;;;;5.97;3.22;;;21.80;99.90;;;;;;5023273;28;20041;-75
2022/06/04 00:09:28;;;;;;;6.22;3.70;;;21.80;99.90;;;;;;5040431;28;20056;-76
2022/06/04 00:17:29;;;;;;;7.20;3.95;;;21.80;99.90;;;;;;5022490;28;20089;-74
2022/06/04 00:19:56;;;;;;;9.98;4.07;;;21.80;99.90;;;;;;5038589;28;20556;-74
2022/06/04 00:22:23;;;;;;;5.82;3.65;;;21.80;99.90;;;;;;5022372;28;20060;-75
2022/06/04 00:24:50;;;;;;;6.25;3.92;;;21.70;99.90;;;;;;5016833;28;20041;-75
2022/06/04 00:27:20;;;;;;;6.25;3.58;;;21.80;99.90;;;;;;5024441;28;20047;-75
2022/06/04 00:29:48;;;;;;;8.55;4.40;;;21.70;99.90;;;;;;5037089;28;20080;-74
2022/06/04 00:32:17;;;;;;;8.75;4.00;;;21.70;99.90;;;;;;5019967;28;20811;-74
2022/06/04 00:34:44;;;;;;;7.63;4.05;;;21.70;99.90;;;;;;5020947;28;20038;-74
2022/06/04 00:37:12;;;;;;;8.23;4.63;;;21.70;99.90;;;;;;5022179;28;20045;-74
2022/06/04 00:39:40;;;;;;;6.90;4.30;;;21.60;99.90;;;;;;5019961;28;20029;-74
2022/06/04 00:42:14;;;;;;;6.63;4.10;;;21.70;99.90;;;;;;5020940;28;20076;-74
2022/06/04 00:45:34;;;;;;;10.32;4.85;;;21.70;99.90;;;;;;5019356;28;20046;-74
2022/06/04 00:48:09;;;;;;;6.50;4.50;;;21.60;99.90;;;;;;4981237;28;20086;-75
2022/06/04 00:50:39;;;;;;;6.07;4.57;;;21.60;99.90;;;;;;4993275;28;20053;-74
2022/06/04 00:53:10;;;;;;;9.70;4.97;;;21.70;99.90;;;;;;5013743;28;20073;-74
2022/06/04 00:55:49;;;;;;;9.63;5.35;;;21.60;99.90;;;;;;5020935;28;20046;-73
2022/06/04 00:58:41;;;;;;;9.38;4.78;;;21.50;99.90;;;;;;5019432;28;20095;-74
2022/06/04 01:01:08;;;;;;;;;;;21.60;99.90;;;;;;5037279;28;20060;-74
2022/06/04 01:03:50;;;;;;;9.10;4.97;;;21.50;99.90;;;;;;5022032;28;20001;-73
2022/06/04 01:06:50;;;;;;;11.38;5.15;;;21.40;99.90;;;;;;5017589;28;20037;-73
2022/06/04 01:09:39;;;;;;;9.32;5.18;;;21.50;99.90;;;;;;5016283;28;20056;-73
2022/06/04 01:12:30;;;;;;;7.00;4.65;;;21.50;99.90;;;;;;5022618;28;20132;-73
2022/06/04 01:15:37;;;;;;;7.78;5.20;;;21.50;99.90;;;;;;5018913;28;20064;-73
2022/06/04 01:18:41;;;;;;;7.60;5.18;;;21.40;99.90;;;;;;5043154;28;20152;-73
2022/06/04 01:21:29;;;;;;;8.25;5.80;;;21.40;99.90;;;;;;5021648;28;20100;-73
2022/06/04 01:24:30;;;;;;;8.57;4.88;;;21.40;99.90;;;;;;5019896;28;20671;-73
2022/06/04 01:27:28;;;;;;;6.93;5.00;;;21.30;99.90;;;;;;5020377;28;20044;-73
2022/06/04 01:30:05;;;;;;;7.53;5.25;;;21.30;99.90;;;;;;5018158;28;20041;-73
2022/06/04 01:32:46;;;;;;;9.60;5.75;;;21.40;99.90;;;;;;5020922;28;20050;-73
2022/06/04 01:35:33;;;;;;;8.00;4.72;;;21.40;99.90;;;;;;5020504;28;20041;-73
2022/06/04 01:38:24;;;;;;;6.85;5.22;;;21.40;99.90;;;;;;5019437;28;20052;-73
2022/06/04 01:41:05;;;;;;;8.85;5.38;;;21.40;99.90;;;;;;5019371;28;20052;-73
2022/06/04 01:43:52;;;;;;;8.70;4.97;;;21.40;99.90;;;;;;5020807;28;20038;-72
2022/06/04 01:46:48;;;;;;;9.15;5.88;;;21.30;99.90;;;;;;5020483;28;20041;-73
2022/06/04 01:49:44;;;;;;;9.18;5.57;;;21.30;99.90;;;;;;5017499;28;20069;-73
2022/06/04 01:52:25;;;;;;;8.65;5.65;;;21.30;99.90;;;;;;5011885;28;20049;-73
2022/06/04 01:54:57;;;;;;;7.20;5.07;;;21.30;99.90;;;;;;5018066;28;20634;-73
2022/06/04 01:57:40;;;;;;;;;;;21.30;99.90;;;;;;5016245;28;20049;-73
2022/06/04 02:00:36;;;;;;;7.47;5.10;;;21.20;99.90;;;;;;5017306;28;19928;-73
2022/06/04 02:03:15;;;;;;;6.15;4.75;;;21.30;99.90;;;;;;5011114;28;20059;-73
2022/06/04 02:05:59;;;;;;;8.77;5.07;;;21.30;99.90;;;;;;5017475;28;20076;-73
2022/06/04 02:08:34;;;;;;;8.85;5.20;;;21.40;99.90;;;;;;5047927;28;20053;-73
2022/06/04 02:11:05;;;;;;;8.57;5.30;;;21.30;99.90;;;;;;5015342;28;20053;-73
2022/06/04 02:13:35;;;;;;;8.23;5.43;;;21.20;99.90;;;;;;5019041;28;20068;-73
2022/06/04 02:16:24;;;;;;;8.27;5.80;;;21.30;99.90;;;;;;5018015;28;20059;-73
2022/06/04 02:18:51;;;;;;;7.25;5.53;;;21.20;99.90;;;;;;5013121;28;20050;-73
2022/06/04 02:21:18;;;;;;;8.63;5.80;;;21.20;99.90;;;;;;5017995;28;20041;-73
2022/06/04 02:23:47;;;;;;;10.38;5.63;;;21.20;99.90;;;;;;5018934;28;20406;-73
2022/06/04 02:26:16;;;;;;;9.07;5.32;;;21.20;99.90;;;;;;5016904;28;20030;-73
2022/06/04 02:28:46;;;;;;;10.85;5.20;;;21.20;99.90;;;;;;5035530;28;20038;-73
2022/06/04 02:31:46;;;;;;;8.52;5.65;;;21.20;99.90;;;;;;5017271;28;20048;-74
2022/06/04 02:34:30;;;;;;;11.57;5.93;;;21.20;99.90;;;;;;5032734;28;20057;-74
2022/06/04 02:37:17;;;;;;;8.90;4.97;;;21.20;99.90;;;;;;5019775;28;20043;-74
2022/06/04 02:40:09;;;;;;;6.10;5.15;;;21.20;99.90;;;;;;5034657;28;20045;-74
2022/06/04 02:42:50;;;;;;;12.57;6.60;;;21.20;99.90;;;;;;5013416;28;20430;-74
2022/06/04 02:45:20;;;;;;;9.10;5.75;;;21.20;99.90;;;;;;5031077;28;20290;-74
2022/06/04 02:47:55;;;;;;;9.07;5.78;;;21.20;99.90;;;;;;5019879;28;20042;-73
2022/06/04 02:50:28;;;;;;;9.07;5.88;;;21.20;99.90;;;;;;5018514;28;20812;-73
2022/06/04 02:52:57;;;;;;;9.63;6.28;;;21.10;99.90;;;;;;5017316;28;20045;-73
2022/06/04 02:55:29;;;;;;;10.68;6.43;;;21.10;99.90;;;;;;5017670;28;20041;-74
2022/06/04 02:57:59;;;;;;;;;;;21.10;99.90;;;;;;5019572;28;20056;-73
2022/06/04 03:00:28;;;;;;;9.90;5.60;;;21.00;99.90;;;;;;5016467;28;19929;-73
2022/06/04 03:02:55;;;;;;;8.23;5.63;;;21.00;99.90;;;;;;5049506;28;20037;-73
2022/06/04 03:05:26;;;;;;;9.90;6.80;;;21.00;99.90;;;;;;5034535;28;20120;-73
2022/06/04 03:07:59;;;;;;;10.93;6.30;;;21.00;99.90;;;;;;5015319;28;20052;-73
2022/06/04 03:10:35;;;;;;;10.85;6.30;;;21.10;99.90;;;;;;5018453;28;20824;-74
2022/06/04 03:13:03;;;;;;;8.30;5.72;;;21.10;99.90;;;;;;5018579;28;20050;-74
2022/06/04 03:15:30;;;;;;;7.95;5.60;;;21.00;99.90;;;;;;5017957;28;20692;-73
2022/06/04 03:17:57;;;;;;;7.13;5.50;;;21.10;99.90;;;;;;5016348;28;20049;-73
2022/06/04 03:20:27;;;;;;;8.93;5.85;;;21.00;99.90;;;;;;5014578;28;20050;-73
2022/06/04 03:22:55;;;;;;;7.63;5.10;;;21.00;99.90;;;;;;5015788;28;20046;-73
2022/06/04 03:25:22;;;;;;;8.77;5.93;;;21.00;99.90;;;;;;5016660;28;20045;-74
2022/06/04 03:27:53;;;;;;;9.00;6.03;;;21.00;99.90;;;;;;5015166;28;20046;-73
2022/06/04 03:30:20;;;;;;;14.40;6.25;;;21.00;99.90;;;;;;5019292;28;20448;-73
2022/06/04 03:32:47;;;;;;;7.68;5.80;;;21.00;99.90;;;;;;5018866;28;20057;-73
2022/06/04 03:35:14;;;;;;;10.95;6.10;;;20.90;99.90;;;;;;5016541;28;20053;-72
2022/06/04 03:37:42;;;;;;;12.70;6.10;;;20.90;99.90;;;;;;5021551;28;20064;-73
2022/06/04 03:40:10;;;;;;;8.00;5.40;;;20.70;99.90;;;;;;5017431;28;20045;-73
2022/06/04 03:42:38;;;;;;;10.23;5.57;;;20.70;99.90;;;;;;5016047;28;20545;-73
2022/06/04 03:45:08;;;;;;;9.13;5.88;;;20.80;99.90;;;;;;5012102;28;20578;-72
2022/06/04 03:47:36;;;;;;;8.65;5.15;;;20.90;99.90;;;;;;5018434;28;20047;-72
2022/06/04 03:50:11;;;;;;;8.50;5.60;;;20.90;99.90;;;;;;4991271;28;22383;-72
2022/06/04 03:52:38;;;;;;;5.95;4.32;;;20.90;99.90;;;;;;4987155;28;23741;-72
2022/06/04 03:55:07;;;;;;;5.85;5.03;;;20.70;99.90;;;;;;4988325;28;20054;-72
2022/06/04 03:57:44;;;;;;;7.63;4.85;;;20.70;99.90;;;;;;4986753;28;22350;-73
2022/06/04 04:00:24;;;;;;;7.18;4.95;;;20.60;99.90;;;;;;4976398;28;20828;-73
2022/06/04 04:03:01;;;;;;;10.20;5.15;;;20.50;99.90;;;;;;4987178;28;20563;-73
2022/06/04 04:05:34;;;;;;;7.65;4.55;;;20.60;99.90;;;;;;4984576;28;20172;-73
2022/06/04 04:08:06;;;;;;;9.30;5.13;;;20.50;99.90;;;;;;4990990;28;20646;-73
2022/06/04 04:10:34;;;;;;;6.75;4.10;;;20.60;99.90;;;;;;4985451;28;20660;-73
2022/06/04 04:13:01;;;;;;;6.90;4.43;;;20.60;99.90;;;;;;4986503;28;20072;-72
2022/06/04 04:15:28;;;;;;;6.85;3.72;;;20.60;99.90;;;;;;4977920;28;20053;-72
2022/06/04 04:17:56;;;;;;;9.57;4.07;;;20.50;99.90;;;;;;4987874;28;20049;-73
2022/06/04 04:20:26;;;;;;;7.25;3.75;;;20.40;99.90;;;;;;4991256;28;20053;-71
2022/06/04 04:22:54;;;;;;;6.45;3.83;;;20.30;99.90;;;;;;4990151;28;20052;-73
2022/06/04 04:25:24;;;;;;;9.32;3.97;;;20.20;99.90;;;;;;4989461;28;20049;-73
2022/06/04 04:27:52;;;;;;;8.13;3.78;;;20.30;99.90;;;;;;4971130;28;20056;-73
2022/06/04 04:30:32;;;;;;;5.38;3.38;;;20.10;99.90;;;;;;4991543;28;20045;-73
2022/06/04 04:32:59;;;;;;;7.13;3.67;;;20.30;99.90;;;;;;4992429;28;20049;-73
2022/06/04 04:35:31;;;;;;;6.88;3.08;;;20.20;99.90;;;;;;4987117;28;20832;-72
2022/06/04 04:37:59;;;;;;;6.70;3.08;;;20.10;99.90;;;;;;4980919;28;20050;-74
2022/06/04 04:40:29;;;;;;;6.50;2.50;;;20.00;99.90;;;;;;4964485;28;20136;-72
2022/06/04 04:42:56;;;;;;;5.28;2.20;;;19.90;99.90;;;;;;4989718;28;20041;-72
2022/06/04 04:45:24;;;;;;;8.60;2.83;;;19.80;99.90;;;;;;4991400;28;20119;-73
2022/06/04 04:47:53;;;;;;;8.80;2.30;;;19.80;99.90;;;;;;4993437;28;20119;-73
2022/06/04 04:50:30;;;;;;;8.30;2.60;;;19.90;99.90;;;;;;4996823;28;20704;-73
2022/06/04 04:52:58;;;;;;;6.30;2.30;;;19.90;99.90;;;;;;4987127;28;20067;-73
2022/06/04 04:55:31;;;;;;;9.88;2.40;;;20.00;99.90;;;;;;4991116;28;20060;-72
2022/06/04 04:57:59;;;;;;;8.85;2.85;;;19.90;99.90;;;;;;4992100;28;21098;-73
2022/06/04 05:00:26;;;;;;;5.85;2.30;;;19.90;99.90;;;;;;4993777;28;20045;-73
2022/06/04 05:02:53;;;;;;;6.35;2.83;;;19.80;99.90;;;;;;4980832;28;20756;-73
2022/06/04 05:05:20;;;;;;;11.25;2.90;;;19.80;99.90;;;;;;5008001;28;20053;-73
2022/06/04 05:07:47;;;;;;;10.38;2.80;;;19.90;99.90;;;;;;4986512;28;20182;-72
2022/06/04 05:10:15;;;;;;;10.60;3.10;;;20.00;99.90;;;;;;4989553;28;20042;-72
2022/06/04 05:12:42;;;;;;;9.52;2.95;;;20.00;99.90;;;;;;4985172;28;22421;-73
2022/06/04 05:15:10;;;;;;;13.40;3.40;;;20.10;99.90;;;;;;4990516;28;20049;-73
2022/06/04 05:17:37;;;;;;;11.82;2.92;;;20.10;99.90;;;;;;5007401;28;20515;-73
2022/06/04 05:20:05;;;;;;;9.65;2.95;;;20.10;99.90;;;;;;4990620;28;20089;-73
2022/06/04 05:22:32;;;;;;;6.45;2.70;;;20.10;99.90;;;;;;4992513;28;20045;-73
2022/06/04 05:24:59;;;;;;;9.38;3.53;;;20.20;99.90;;;;;;4991637;28;20037;-73
2022/06/04 05:27:27;;;;;;;8.68;2.65;;;20.10;99.90;;;;;;4991554;28;20068;-74
2022/06/04 05:29:54;;;;;;;10.80;3.63;;;20.10;99.90;;;;;;4990721;28;20053;-73
2022/06/04 05:32:21;;;;;;;7.60;2.65;;;20.10;99.90;;;;;;4988545;28;20057;-73
2022/06/04 05:34:48;;;;;;;9.73;2.95;;;20.00;99.90;;;;;;4988994;28;20103;-74
2022/06/04 05:37:15;;;;;;;7.88;2.50;;;20.00;99.90;;;;;;4991440;28;21251;-73
2022/06/04 05:39:42;;;;;;;8.23;2.10;;;20.00;99.90;;;;;;5011537;28;21874;-74
2022/06/04 05:42:10;;;;;;;16.80;4.35;;;20.00;99.90;;;;;;4995938;28;20267;-74
2022/06/04 05:44:37;;;;;;;7.78;3.15;;;20.00;99.90;;;;;;4988850;28;20049;-74
2022/06/04 05:47:04;;;;;;;10.32;2.20;;;20.10;99.90;;;;;;4983304;28;20046;-74
2022/06/04 05:49:31;;;;;;;5.65;1.95;;;20.00;99.90;;;;;;5012693;28;22379;-75
2022/06/04 05:51:58;;;;;;;6.35;1.80;;;20.00;99.90;;;;;;4996661;28;22435;-74
2022/06/04 05:54:26;;;;;;;4.93;1.98;;;19.90;99.90;;;;;;4986662;28;22449;-74
2022/06/04 05:56:53;;;;;;;4.97;1.52;;;19.90;99.90;;;;;;5011824;28;20940;-74
2022/06/04 05:59:23;;;;;;;6.70;1.80;;;20.00;99.90;;;;;;5007867;28;20042;-74
2022/06/04 06:01:51;;;;;;;9.13;1.85;;;20.00;99.90;;;;;;4995966;28;20048;-73
2022/06/04 06:04:20;;;;;;;5.57;2.40;;;19.90;99.90;;;;;;4998331;28;20052;-74
2022/06/04 06:06:50;;;;;;;8.55;2.55;;;19.90;99.90;;;;;;4985499;28;20076;-74
2022/06/04 06:09:20;;;;;;;7.90;1.63;;;19.90;99.90;;;;;;4976142;28;20060;-73
2022/06/04 06:11:48;;;;;;;5.13;2.00;;;19.90;99.90;;;;;;4997695;28;20052;-74
2022/06/04 06:14:16;;;;;;;8.55;2.13;;;20.00;99.90;;;;;;4983137;28;20057;-73
2022/06/04 06:16:46;;;;;;;10.20;2.42;;;20.00;99.90;;;;;;5009109;28;20053;-75
2022/06/04 06:19:15;;;;;;;7.30;1.70;;;20.10;99.90;;;;;;4990527;28;20061;-74
2022/06/04 06:25:52;;;;;;;7.78;1.98;;;20.30;99.90;;;;;;4984504;28;20041;-73
2022/06/04 06:28:19;;;;;;;8.40;2.78;;;20.30;99.90;;;;;;4995465;28;20045;-75
2022/06/04 06:30:55;;;;;;;9.00;2.97;;;20.30;99.90;;;;;;4998478;28;20057;-75
2022/06/04 06:33:22;;;;;;;6.28;2.00;;;20.30;99.90;;;;;;4996496;28;20049;-74
2022/06/04 06:36:01;;;;;;;4.93;2.25;;;20.30;99.90;;;;;;4992347;28;20412;-75
2022/06/04 06:38:29;;;;;;;6.40;1.90;;;20.30;99.90;;;;;;4999455;28;20053;-75
2022/06/04 06:40:58;;;;;;;5.88;1.80;;;20.30;99.90;;;;;;4999868;28;20077;-74
2022/06/04 06:43:36;;;;;;;6.35;2.50;;;20.30;99.90;;;;;;5002468;28;20081;-75
2022/06/04 06:46:08;;;;;;;5.78;2.15;;;20.30;99.90;;;;;;4992305;28;20099;-75
2022/06/04 06:48:38;;;;;;;7.20;2.33;;;20.30;99.90;;;;;;5003134;28;20046;-75
2022/06/04 06:51:08;;;;;;;7.13;2.30;;;20.30;99.90;;;;;;5000803;28;20045;-75
2022/06/04 06:53:35;;;;;;;4.20;1.80;;;20.30;99.90;;;;;;5002686;28;20072;-75
2022/06/04 06:56:15;;;;;;;5.65;2.03;;;20.30;99.90;;;;;;5001217;28;20053;-75
2022/06/04 06:58:44;;;;;;;5.70;1.90;;;20.30;99.90;;;;;;4995328;28;20061;-75
2022/06/04 07:01:12;;;;;;;4.43;1.80;;;20.30;99.90;;;;;;4999531;28;20037;-74
2022/06/04 07:03:41;;;;;;;4.82;2.38;;;20.30;99.90;;;;;;4999802;28;20388;-74
2022/06/04 07:06:12;;;;;;;4.85;1.75;;;20.40;99.90;;;;;;4992522;28;20043;-75
2022/06/04 07:08:41;;;;;;;3.72;1.85;;;20.50;99.90;;;;;;4999236;28;20049;-75
2022/06/04 07:11:08;;;;;;;6.47;2.40;;;20.60;99.90;;;;;;4996045;28;20471;-73
2022/06/04 07:13:35;;;;;;;5.13;1.67;;;20.70;99.90;;;;;;4992328;28;20065;-74
2022/06/04 07:16:04;;;;;;;9.20;2.72;;;20.80;99.90;;;;;;4996177;28;20808;-74
2022/06/04 07:18:31;;;;;;;6.57;1.95;;;20.80;99.90;;;;;;4993540;28;20114;-75
2022/06/04 07:20:59;;;;;;;6.50;1.98;;;20.80;99.90;;;;;;4987024;28;21422;-73
2022/06/04 07:23:26;;;;;;;10.38;3.25;;;20.90;99.90;;;;;;4994577;28;20056;-74
2022/06/04 07:25:54;;;;;;;6.82;2.80;;;21.20;99.90;;;;;;5009655;28;20045;-73
2022/06/04 07:28:21;;;;;;;5.53;1.83;;;21.50;99.90;;;;;;4987738;28;20793;-73
2022/06/04 07:30:48;;;;;;;6.68;2.00;;;21.50;99.90;;;;;;4994148;28;20056;-74
2022/06/04 07:33:15;;;;;;;5.45;2.10;;;21.40;99.90;;;;;;4994125;28;20056;-75
2022/06/04 07:35:47;;;;;;;5.53;2.05;;;21.70;99.90;;;;;;4996468;28;20593;-75
2022/06/04 07:38:15;;;;;;;3.53;1.80;;;22.00;99.90;;;;;;5011473;28;21014;-75
2022/06/04 07:40:43;;;;;;;4.47;2.25;;;22.20;99.90;;;;;;5013907;28;20049;-74
2022/06/04 07:43:11;;;;;;;4.18;2.47;;;22.20;99.90;;;;;;4989156;28;20084;-74
2022/06/04 07:45:39;;;;;;;5.25;2.10;;;22.40;99.90;;;;;;4998607;28;20150;-74
2022/06/04 07:48:08;;;;;;;5.45;1.70;;;22.30;99.90;;;;;;4997091;28;20054;-74
2022/06/04 07:50:37;;;;;;;4.35;2.30;;;22.20;99.90;;;;;;4994365;28;20045;-74
2022/06/04 07:53:05;;;;;;;7.80;2.20;;;22.00;99.90;;;;;;4989623;28;22400;-74
2022/06/04 07:55:33;;;;;;;4.90;2.75;;;21.90;99.90;;;;;;4996306;28;20060;-74
2022/06/04 07:58:00;;;;;;;5.35;2.60;;;21.80;99.90;;;;;;4985865;28;20061;-74
2022/06/04 08:00:27;;;;;;;6.25;1.90;;;21.70;99.90;;;;;;4998491;28;21283;-76
2022/06/04 08:02:54;;;;;;;6.80;2.30;;;21.70;99.90;;;;;;4988139;28;20045;-74
2022/06/04 08:05:24;;;;;;;3.30;2.08;;;21.70;99.90;;;;;;4994243;28;20064;-74
2022/06/04 08:07:52;;;;;;;4.63;2.38;;;21.70;99.90;;;;;;5008013;28;22438;-75
2022/06/04 08:10:20;;;;;;;5.50;1.90;;;21.60;99.90;;;;;;4991225;28;20065;-74
2022/06/04 08:12:51;;;;;;;5.75;2.22;;;21.60;99.90;;;;;;4994730;28;20059;-75
2022/06/04 08:15:18;;;;;;;6.20;2.70;;;21.60;99.90;;;;;;4993450;28;20060;-75
2022/06/04 08:17:47;;;;;;;6.10;2.35;;;21.50;99.90;;;;;;4994441;28;20066;-75
2022/06/04 08:20:14;;;;;;;5.30;2.58;;;21.50;99.90;;;;;;5008617;28;20053;-75
2022/06/04 08:22:44;;;;;;;5.07;2.78;;;21.50;99.90;;;;;;4992955;28;20823;-75
2022/06/04 08:25:11;;;;;;;3.72;2.25;;;21.30;99.90;;;;;;4997468;28;20049;-75
2022/06/04 08:27:38;;;;;;;4.72;2.45;;;21.30;99.90;;;;;;5000303;28;20045;-75
2022/06/04 08:30:06;;;;;;;4.32;2.42;;;21.40;99.90;;;;;;4997636;28;20716;-75
2022/06/04 08:32:33;;;;;;;6.30;2.63;;;21.40;99.90;;;;;;4993675;28;20065;-75
2022/06/04 08:35:02;;;;;;;5.07;2.33;;;21.50;99.90;;;;;;5001908;28;20072;-75
2022/06/04 08:37:30;;;;;;;6.78;2.45;;;21.60;99.90;;;;;;5001759;28;20049;-75
2022/06/04 08:39:59;;;;;;;5.00;2.63;;;21.60;99.90;;;;;;5000487;28;20041;-75
2022/06/04 08:43:02;;;;;;;3.88;2.35;;;21.60;99.90;;;;;;5003825;28;20049;-75
2022/06/04 08:45:29;;;;;;;7.43;2.60;;;21.70;99.90;;;;;;4979490;28;20513;-75
2022/06/04 08:47:56;;;;;;;7.07;2.47;;;21.70;99.90;;;;;;5000416;28;20075;-74
2022/06/04 08:50:29;;;;;;;3.60;2.60;;;21.80;99.90;;;;;;4997617;28;20423;-74
2022/06/04 08:53:03;;;;;;;5.38;2.92;;;22.00;99.90;;;;;;5003609;28;20060;-75
2022/06/04 08:58:50;;;;;;;5.00;2.75;;;22.40;99.90;;;;;;5000275;28;20167;-75
2022/06/04 09:01:42;;;;;;;6.95;3.30;;;22.60;99.90;;;;;;5019134;28;21052;-75
2022/06/04 09:04:32;;;;;;;6.13;2.90;;;22.70;99.90;;;;;;4992231;28;20081;-75
2022/06/04 09:07:37;;;;;;;4.82;3.25;;;22.60;99.90;;;;;;5022129;28;20174;-75
2022/06/04 09:10:18;;;;;;;3.58;2.80;;;22.70;99.90;;;;;;5006405;28;20080;-75
2022/06/04 09:12:54;;;;;;;6.10;3.17;;;22.70;99.90;;;;;;5020180;28;22370;-75
2022/06/04 09:15:53;;;;;;;5.57;2.95;;;22.70;99.90;;;;;;5003560;28;20908;-75
2022/06/04 09:18:27;;;;;;;6.15;3.17;;;22.60;99.90;;;;;;4985918;28;20057;-75
2022/06/04 09:20:56;;;;;;;4.30;2.78;;;22.60;99.90;;;;;;5020129;28;20052;-76
2022/06/04 09:23:35;;;;;;;3.97;3.10;;;22.60;99.90;;;;;;4987530;28;20056;-76
2022/06/04 09:26:14;;;;;;;6.82;3.85;;;22.60;99.90;;;;;;5003963;28;20056;-76
2022/06/04 09:28:54;;;;;;;5.22;3.65;;;22.60;99.90;;;;;;5000021;28;20045;-75
2022/06/04 09:31:37;;;;;;;4.78;3.08;;;22.40;99.90;;;;;;5007079;28;20506;-75
2022/06/04 09:34:30;;;;;;;5.25;2.83;;;22.40;99.90;;;;;;4999377;28;20046;-76
2022/06/04 09:36:58;;;;;;;5.43;3.25;;;22.40;99.90;;;;;;5006264;28;20072;-76
2022/06/04 09:39:31;;;;;;;5.07;3.00;;;22.50;99.90;;;;;;5006343;28;20053;-76
2022/06/04 09:42:05;;;;;;;4.78;3.10;;;22.50;99.90;;;;;;4997362;28;20065;-76
2022/06/04 09:44:37;;;;;;;7.68;3.53;;;22.50;99.90;;;;;;5022997;28;21369;-76
2022/06/04 09:47:20;;;;;;;6.07;3.83;;;22.70;99.90;;;;;;5002097;28;20203;-76
2022/06/04 09:50:00;;;;;;;5.13;3.70;;;22.70;99.90;;;;;;5006377;28;20983;-76
2022/06/04 09:52:41;;;;;;;5.05;3.63;;;22.80;99.90;;;;;;5005568;28;20046;-76
2022/06/04 09:55:20;;;;;;;5.80;3.80;;;22.90;99.90;;;;;;5010481;28;20138;-76
2022/06/04 09:58:18;;;;;;;5.07;3.72;;;23.00;99.90;;;;;;5009968;28;20068;-75
2022/06/04 10:01:06;;;;;;;5.82;3.75;;;23.00;99.90;;;;;;5005677;28;20059;-76
2022/06/04 10:03:36;;;;;;;6.75;3.95;;;23.00;99.90;;;;;;5025095;28;20053;-76
2022/06/04 10:06:07;;;;;;;5.88;3.67;;;23.10;99.90;;;;;;5001672;28;20049;-76
2022/06/04 10:11:24;;;;;;;5.63;4.30;;;23.20;99.90;;;;;;4993536;28;20096;-76
2022/06/04 10:13:55;;;;;;;7.63;4.30;;;23.20;99.90;;;;;;5002211;28;20065;-75
2022/06/04 10:16:26;;;;;;;6.90;4.68;;;23.20;99.90;;;;;;5003885;28;20179;-76
2022/06/04 10:19:16;;;;;;;7.20;4.00;;;23.20;99.90;;;;;;5005138;28;20053;-76
2022/06/04 10:21:47;;;;;;;6.18;3.88;;;23.20;99.90;;;;;;5003541;28;20057;-76
2022/06/04 10:24:28;;;;;;;4.70;3.42;;;23.20;99.90;;;;;;5006612;28;21312;-75
2022/06/04 10:27:22;;;;;;;7.20;4.00;;;23.30;99.90;;;;;;5002405;28;20053;-76
2022/06/04 10:30:05;;;;;;;4.75;3.47;;;23.40;99.90;;;;;;5007192;28;20048;-76
2022/06/04 10:32:50;;;;;;;5.40;3.35;;;23.80;99.90;;;;;;4999287;28;20045;-76
2022/06/04 10:35:56;;;;;;;3.17;2.10;;;23.90;99.90;;;;;;5004942;28;20045;-76
2022/06/04 10:38:55;;;;;;;2.70;2.50;;;24.10;99.90;;;;;;4987534;28;20049;-75
2022/06/04 10:41:47;;;;;;;3.90;2.05;;;24.10;99.90;;;;;;4959185;28;20065;-75
2022/06/04 10:44:34;;;;;;;4.23;2.90;;;24.10;99.90;;;;;;5004631;28;20520;-75
2022/06/04 10:47:30;;;;;;;10.07;3.00;;;24.10;99.90;;;;;;5002035;28;20045;-75
2022/06/04 10:50:19;;;;;;;4.93;2.03;;;24.20;99.90;;;;;;5005519;28;20045;-75
2022/06/04 10:53:12;;;;;;;4.80;2.58;;;24.30;99.90;;;;;;5001658;28;20060;-75
2022/06/04 10:55:48;;;;;;;4.55;2.05;;;24.20;99.90;;;;;;4989306;28;20067;-76
2022/06/04 10:58:38;;;;;;;2.88;1.20;;;24.30;99.90;;;;;;4999839;28;20164;-74
2022/06/04 11:01:11;;;;;;;5.38;1.38;;;24.30;99.90;;;;;;5000872;28;20203;-75
2022/06/04 11:03:53;;;;;;;3.80;1.73;;;24.20;99.90;;;;;;5012653;28;20044;-75
2022/06/04 11:06:31;;;;;;;2.92;1.00;;;24.20;99.90;;;;;;4997846;28;20191;-76
2022/06/04 11:09:17;;;;;;;4.00;1.55;;;24.10;99.90;;;;;;5005469;28;20046;-76
2022/06/04 11:12:02;;;;;;;6.25;3.72;;;24.00;99.90;;;;;;4998928;28;20042;-75
2022/06/04 11:14:46;;;;;;;5.85;3.97;;;23.90;99.90;;;;;;4994510;28;20149;-75
2022/06/04 11:17:22;;;;;;;6.15;3.90;;;23.80;99.90;;;;;;4995605;28;20053;-76
2022/06/04 11:19:49;;;;;;;7.43;4.47;;;23.80;99.90;;;;;;5014766;28;20053;-76
2022/06/04 11:22:22;;;;;;;7.57;4.22;;;23.80;99.90;;;;;;5000572;28;20045;-76
2022/06/04 11:25:24;;;;;;;6.60;4.05;;;23.80;99.90;;;;;;4989214;28;20049;-76
2022/06/04 11:27:55;;;;;;;4.90;3.92;;;23.90;99.90;;;;;;4997888;28;20049;-74
2022/06/04 11:30:46;;;;;;;7.32;4.13;;;23.70;99.90;;;;;;4998661;28;22441;-76
2022/06/04 11:33:22;;;;;;;6.22;4.03;;;23.50;99.90;;;;;;4967226;28;20058;-74
2022/06/04 11:36:03;;;;;;;6.78;4.13;;;23.50;99.90;;;;;;4993759;28;20049;-74
2022/06/04 11:38:42;;;;;;;8.55;4.68;;;23.80;99.90;;;;;;4992222;28;20208;-75
2022/06/04 11:41:28;;;;;;;6.03;4.10;;;23.80;99.90;;;;;;5033737;28;20053;-75
2022/06/04 11:44:11;;;;;;;5.72;3.13;;;24.00;99.90;;;;;;5001272;28;20046;-76
2022/06/04 11:46:57;;;;;;;6.57;3.40;;;24.00;99.90;;;;;;4997156;28;20041;-74
2022/06/04 11:49:35;;;;;;;4.22;2.92;;;23.90;99.90;;;;;;5010467;28;20053;-75
2022/06/04 11:52:26;;;;;;;6.32;3.40;;;24.00;99.90;;;;;;4997335;28;20049;-75
2022/06/04 11:55:07;;;;;;;6.18;4.05;;;24.00;99.90;;;;;;5011816;28;20405;-75
2022/06/04 11:57:55;;;;;;;5.75;3.60;;;23.90;99.90;;;;;;5002749;28;20061;-74
2022/06/04 12:00:31;;;;;;;5.50;2.58;;;23.90;99.90;;;;;;4997469;28;20099;-75
2022/06/04 12:03:21;;;;;;;3.90;2.80;;;24.10;99.90;;;;;;4977299;28;20080;-75
2022/06/04 12:06:13;;;;;;;4.20;2.88;;;24.20;99.90;;;;;;4999434;28;20053;-76
2022/06/04 12:08:53;;;;;;;8.95;4.40;;;24.20;99.90;;;;;;5001382;28;20053;-76
2022/06/04 12:11:23;;;;;;;5.38;2.58;;;24.30;99.90;;;;;;5000442;28;20049;-74
2022/06/04 12:14:03;;;;;;;3.88;2.53;;;24.10;99.90;;;;;;5004729;28;20174;-76
2022/06/04 12:17:08;;;;;;;4.47;2.60;;;24.10;99.90;;;;;;4997844;28;20057;-75
2022/06/04 12:25:17;;;;;;;4.47;3.20;;;24.30;99.90;;;;;;4991495;28;20060;-75
2022/06/04 12:28:00;;;;;;;3.83;3.42;;;24.10;99.90;;;;;;5020593;28;20045;-75
2022/06/04 12:30:43;;;;;;;5.43;3.17;;;24.10;99.90;;;;;;5015335;28;20059;-75
2022/06/04 12:33:25;;;;;;;7.05;3.75;;;24.30;99.90;;;;;;4997873;28;20131;-76
2022/06/04 12:35:56;;;;;;;6.70;3.10;;;24.30;99.90;;;;;;4988349;28;22412;-74
2022/06/04 12:38:25;;;;;;;4.40;2.70;;;24.30;99.90;;;;;;4995428;28;20046;-74
2022/06/04 12:41:09;;;;;;;6.90;3.33;;;24.30;99.90;;;;;;4997520;28;20051;-75
2022/06/04 12:43:42;;;;;;;7.85;3.08;;;24.40;99.90;;;;;;4998909;28;20044;-75
2022/06/04 12:46:30;;;;;;;5.63;3.30;;;24.50;99.90;;;;;;5017144;28;20061;-74
2022/06/04 12:49:22;;;;;;;4.35;2.90;;;24.30;99.90;;;;;;5017720;28;20057;-74
2022/06/04 12:52:17;;;;;;;7.05;3.67;;;24.50;99.90;;;;;;5015396;28;20049;-75
2022/06/04 12:55:17;;;;;;;8.00;3.33;;;24.60;99.50;;;;;;4981682;28;20424;-76
2022/06/04 12:58:01;;;;;;;5.38;3.08;;;24.50;98.40;;;;;;4970360;28;20076;-74
2022/06/04 13:00:33;;;;;;;7.88;3.58;;;24.40;98.60;;;;;;4996598;28;20060;-76
2022/06/04 13:03:09;;;;;;;3.20;2.50;;;24.30;99.90;;;;;;4977957;28;20236;-74
2022/06/04 13:05:54;;;;;;;6.35;3.38;;;24.50;97.80;;;;;;4980608;28;20075;-76
2022/06/04 13:08:36;;;;;;;3.42;2.10;;;24.60;96.60;;;;;;4994134;28;20053;-74
2022/06/04 13:11:22;;;;;;;;;;;24.70;96.30;;;;;;4996488;28;21160;-76
2022/06/04 13:14:10;;;;;;;4.35;2.17;;;24.70;95.20;;;;;;5017192;28;20023;-78
2022/06/04 13:16:54;;;;;;;2.60;2.00;;;24.80;95.80;;;;;;5003631;28;20041;-76
2022/06/04 13:19:39;;;;;;;3.92;1.85;;;24.90;95.60;;;;;;4998626;28;20046;-75
2022/06/04 13:22:18;;;;;;;3.00;1.60;;;24.90;94.70;;;;;;4959515;28;22522;-75
2022/06/04 13:24:45;;;;;;;3.72;1.58;;;24.90;93.60;;;;;;4979204;28;20049;-75
2022/06/04 13:27:17;;;;;;;1.83;1.50;;;25.00;94.20;;;;;;4980955;28;20100;-75
2022/06/04 13:29:53;;;;;;;;;;;24.90;93.90;;;;;;4998349;28;20274;-74
2022/06/04 13:32:22;;;;;;;2.17;0.88;;;25.00;93.40;;;;;;4999929;28;19929;-75
2022/06/04 13:34:50;;;;;;;7.13;2.22;;;25.10;91.90;;;;;;4974632;28;20046;-75
2022/06/04 13:37:37;;;;;;;4.75;1.70;;;25.20;92.40;;;;;;4977313;28;20050;-75
2022/06/04 13:40:17;;;;;;;3.13;1.60;;;25.10;91.60;;;;;;4999570;28;21010;-75
2022/06/04 13:42:47;;;;;;;3.97;1.60;;;25.10;92.80;;;;;;4980917;28;20239;-74
2022/06/04 13:45:30;;;;;;;1.83;1.50;;;25.20;92.40;;;;;;4977592;28;20046;-74
2022/06/04 13:48:11;;;;;;;1.42;1.17;;;25.20;91.70;;;;;;4971922;28;20046;-74
2022/06/04 13:50:47;;;;;;;2.97;1.47;;;25.10;89.90;;;;;;4976971;28;20061;-74
2022/06/04 13:53:19;;;;;;;2.30;1.33;;;25.10;91.30;;;;;;4975102;28;20704;-74